createdAt,value
2019-03-01T00:00:15.888Z,65.5
2019-03-01T00:03:15.752Z,66.2
2019-03-01T00:06:15.432Z,67.0
2019-03-01T00:09:15.329Z,66.2
2019-03-01T00:12:15.251Z,66.1
2019-03-01T00:15:15.407Z,66.4
2019-03-01T00:18:15.417Z,65.5
2019-03-01T00:21:15.050Z,65.4
2019-03-01T00:24:15.955Z,66.1
2019-03-01T00:27:15.602Z,65.8
2019-03-01T00:30:15.048Z,65.7
2019-03-01T00:33:15.729Z,65.1
2019-03-01T00:36:15.912Z,65.1
2019-03-01T00:39:15.378Z,65.1
2019-03-01T00:42:15.225Z,64.6
2019-03-01T00:45:15.246Z,64.0
2019-03-01T00:48:15.165Z,64.0
2019-03-01T00:51:15.912Z,63.6
2019-03-01T00:54:15.634Z,63.7
2019-03-01T00:57:15.404Z,62.9
2019-03-01T01:00:15.593Z,62.9
2019-03-01T01:03:15.482Z,63.0
2019-03-01T01:06:15.486Z,62.1
2019-03-01T01:09:15.154Z,62.3
2019-03-01T01:12:15.392Z,62.2
2019-03-01T01:15:15.027Z,62.0
2019-03-01T01:18:15.890Z,61.5
2019-03-01T01:21:15.640Z,61.4
2019-03-01T01:24:15.509Z,61.2
2019-03-01T01:27:15.617Z,60.9
2019-03-01T01:30:15.337Z,60.9
2019-03-01T01:33:15.081Z,61.1
2019-03-01T01:36:15.731Z,61.0
2019-03-01T01:39:15.467Z,61.1
2019-03-01T01:42:15.296Z,61.2
2019-03-01T01:45:15.035Z,61.2
2019-03-01T01:48:15.856Z,61.4
2019-03-01T01:51:15.156Z,61.3
2019-03-01T01:54:15.000Z,61.2
2019-03-01T01:57:15.793Z,61.3
2019-03-01T02:00:15.392Z,60.9
2019-03-01T02:03:15.724Z,60.9
2019-03-01T02:06:15.680Z,60.7
2019-03-01T02:09:15.476Z,60.9
2019-03-01T02:12:15.995Z,61.0
2019-03-01T02:15:15.601Z,61.2
2019-03-01T02:18:15.443Z,61.2
2019-03-01T02:21:14.984Z,61.1
2019-03-01T02:24:15.907Z,61.3
2019-03-01T02:27:15.549Z,61.6
2019-03-01T02:30:15.338Z,61.7
2019-03-01T02:33:15.781Z,61.6
2019-03-01T02:36:15.574Z,61.9
2019-03-01T02:39:15.279Z,63.2
2019-03-01T02:42:14.981Z,64.1
2019-03-01T02:45:15.839Z,64.7
2019-03-01T02:48:15.597Z,66.6
2019-03-01T02:51:15.288Z,68.3
2019-03-01T02:54:15.324Z,67.4
2019-03-01T02:57:15.177Z,67.3
2019-03-01T03:00:15.320Z,69.7
2019-03-01T03:03:15.628Z,68.3
2019-03-01T03:06:15.889Z,69.3
2019-03-01T03:09:15.408Z,69.8
2019-03-01T03:12:15.529Z,70.2
2019-03-01T03:15:15.209Z,70.9
2019-03-01T03:18:16.259Z,70.3
2019-03-01T03:21:15.257Z,74.7
2019-03-01T03:24:16.836Z,73.7
2019-03-01T03:27:17.076Z,71.6
2019-03-01T03:30:15.674Z,72.0
2019-03-01T03:33:15.582Z,71.4
2019-03-01T03:36:15.333Z,74.5
2019-03-01T03:39:15.371Z,74.9
2019-03-01T03:42:15.153Z,75.4
2019-03-01T03:45:15.859Z,72.9
2019-03-01T03:48:15.662Z,73.5
2019-03-01T03:51:15.636Z,73.9
2019-03-01T03:54:16.478Z,74.6
2019-03-01T03:57:15.373Z,73.4
2019-03-01T04:00:15.075Z,74.0
2019-03-01T04:03:15.866Z,76.3
2019-03-01T04:06:15.873Z,79.3
2019-03-01T04:09:15.284Z,77.1
2019-03-01T04:12:15.219Z,76.8
2019-03-01T04:15:16.006Z,76.3
2019-03-01T04:18:15.955Z,78.4
2019-03-01T04:21:15.897Z,78.3
2019-03-01T04:24:15.594Z,76.8
2019-03-01T04:27:15.560Z,76.5
2019-03-01T04:30:15.547Z,76.8
2019-03-01T04:33:15.399Z,76.6
2019-03-01T04:36:15.341Z,76.7
2019-03-01T04:39:15.046Z,77.0
2019-03-01T04:42:15.168Z,77.5
2019-03-01T04:45:15.889Z,77.1
2019-03-01T04:48:15.758Z,77.6
2019-03-01T04:51:15.379Z,77.8
2019-03-01T04:54:15.299Z,75.2
2019-03-01T04:57:14.966Z,74.9
2019-03-01T05:00:16.704Z,75.4
2019-03-01T05:03:14.986Z,77.1
2019-03-01T05:06:15.746Z,79.4
2019-03-01T05:09:15.550Z,80.0
2019-03-01T05:12:15.134Z,79.8
2019-03-01T05:15:15.761Z,80.3
2019-03-01T05:18:15.706Z,80.4
2019-03-01T05:21:15.672Z,81.3
2019-03-01T05:24:15.494Z,82.0
2019-03-01T05:27:15.471Z,81.9
2019-03-01T05:30:15.479Z,81.0
2019-03-01T05:33:15.159Z,81.3
2019-03-01T05:36:15.230Z,80.8
2019-03-01T05:39:15.108Z,80.9
2019-03-01T05:42:15.950Z,80.8
2019-03-01T05:45:15.671Z,80.6
2019-03-01T05:48:15.678Z,80.5
2019-03-01T05:51:15.755Z,80.2
2019-03-01T05:54:15.919Z,80.2
2019-03-01T05:57:15.825Z,80.0
2019-03-01T06:00:15.840Z,79.5
2019-03-01T06:03:15.993Z,79.5
2019-03-01T06:06:15.334Z,79.4
2019-03-01T06:09:15.555Z,79.7
2019-03-01T06:12:15.478Z,79.3
2019-03-01T06:15:15.283Z,78.9
2019-03-01T06:18:15.107Z,79.4
2019-03-01T06:21:15.449Z,79.2
2019-03-01T06:24:15.820Z,78.5
2019-03-01T06:27:16.445Z,78.3
2019-03-01T06:30:15.076Z,78.3
2019-03-01T06:33:15.693Z,77.3
2019-03-01T06:36:15.418Z,77.5
2019-03-01T06:39:15.627Z,76.6
2019-03-01T06:42:15.505Z,76.1
2019-03-01T06:45:15.217Z,76.2
2019-03-01T06:48:15.877Z,75.7
2019-03-01T06:51:15.399Z,76.3
2019-03-01T06:54:15.462Z,75.4
2019-03-01T06:57:15.924Z,75.4
2019-03-01T07:00:15.847Z,75.3
2019-03-01T07:03:15.972Z,74.9
2019-03-01T07:06:15.650Z,74.7
2019-03-01T07:09:15.747Z,73.6
2019-03-01T07:12:15.624Z,74.1
2019-03-01T07:15:16.164Z,74.6
2019-03-01T07:18:15.546Z,74.2
2019-03-01T07:21:15.681Z,74.4
2019-03-01T07:24:15.750Z,74.2
2019-03-01T07:27:15.717Z,73.9
2019-03-01T07:30:15.189Z,73.9
2019-03-01T07:33:15.121Z,73.7
2019-03-01T07:36:15.787Z,73.5
2019-03-01T07:39:15.677Z,73.6
2019-03-01T07:42:15.646Z,72.9
2019-03-01T07:45:15.795Z,71.8
2019-03-01T07:48:15.719Z,71.7
2019-03-01T07:51:15.943Z,70.4
2019-03-01T07:54:16.874Z,71.2
2019-03-01T07:57:15.828Z,70.9
2019-03-01T08:00:15.261Z,70.9
2019-03-01T08:03:15.966Z,70.1
2019-03-01T08:06:16.031Z,68.3
2019-03-01T08:09:16.458Z,67.4
2019-03-01T08:12:14.980Z,67.6
2019-03-01T08:15:15.932Z,66.8
2019-03-01T08:18:15.908Z,67.8
2019-03-01T08:21:15.838Z,66.7
2019-03-01T08:24:15.125Z,68.1
2019-03-01T08:27:15.584Z,66.3
2019-03-01T08:30:15.688Z,67.8
2019-03-01T08:33:15.571Z,67.2
2019-03-01T08:36:15.405Z,65.7
2019-03-01T08:39:15.702Z,65.1
2019-03-01T08:42:15.826Z,63.2
2019-03-01T08:45:15.323Z,63.8
2019-03-01T08:48:15.314Z,61.9
2019-03-01T08:51:16.021Z,62.7
2019-03-01T08:54:15.872Z,62.1
2019-03-01T08:57:15.792Z,61.1
2019-03-01T09:00:15.717Z,61.4
2019-03-01T09:03:16.329Z,60.0
2019-03-01T09:06:15.596Z,53.3
2019-03-01T09:09:17.663Z,51.5
2019-03-01T09:12:15.436Z,45.5
2019-03-01T09:15:15.624Z,43.6
2019-03-01T09:18:15.848Z,43.5
2019-03-01T09:21:15.232Z,34.8
2019-03-01T09:24:15.255Z,32.5
2019-03-01T09:27:15.774Z,32.6
2019-03-01T09:30:15.707Z,37.4
2019-03-01T09:33:17.126Z,38.8
2019-03-01T09:36:17.846Z,39.5
2019-03-01T09:39:18.020Z,40.9
2019-03-01T09:42:16.267Z,43.9
2019-03-01T09:45:15.463Z,44.9
2019-03-01T09:48:15.459Z,42.6
2019-03-01T09:51:15.950Z,47.9
2019-03-01T09:54:15.990Z,48.1
2019-03-01T09:57:16.412Z,50.6
2019-03-01T10:00:15.561Z,51.5
2019-03-01T10:03:15.823Z,52.2
2019-03-01T10:06:15.045Z,52.6
2019-03-01T10:09:15.806Z,53.0
2019-03-01T10:12:15.864Z,53.1
2019-03-01T10:15:15.983Z,53.1
2019-03-01T10:18:15.376Z,53.1
2019-03-01T10:21:15.380Z,52.9
2019-03-01T10:24:15.401Z,52.5
2019-03-01T10:27:15.427Z,48.5
2019-03-01T10:30:15.428Z,43.4
2019-03-01T10:33:15.800Z,44.7
2019-03-01T10:36:15.238Z,42.0
2019-03-01T10:39:15.550Z,44.6
2019-03-01T10:42:15.470Z,44.6
2019-03-01T10:45:15.279Z,46.0
2019-03-01T10:48:15.614Z,45.7
2019-03-01T10:51:20.563Z,45.4
2019-03-01T10:54:15.500Z,46.5
2019-03-01T10:57:15.388Z,46.9
2019-03-01T11:00:15.376Z,47.4
2019-03-01T11:03:15.063Z,48.3
2019-03-01T11:06:15.531Z,47.1
2019-03-01T11:09:15.562Z,46.4
2019-03-01T11:12:15.451Z,45.0
2019-03-01T11:15:15.444Z,46.2
2019-03-01T11:18:24.444Z,46.0
2019-03-01T11:21:15.544Z,46.6
2019-03-01T11:24:16.155Z,46.7
2019-03-01T11:27:15.291Z,47.1
2019-03-01T11:30:15.553Z,46.8
2019-03-01T11:33:15.133Z,47.1
2019-03-01T11:36:14.963Z,45.5
2019-03-01T11:39:15.912Z,43.8
2019-03-01T11:42:15.919Z,41.9
2019-03-01T11:45:15.925Z,42.2
2019-03-01T11:48:15.145Z,40.8
2019-03-01T11:51:28.492Z,41.6
2019-03-01T11:54:15.313Z,40.6
2019-03-01T11:57:15.140Z,42.7
2019-03-01T12:00:15.149Z,43.5
2019-03-01T12:03:15.685Z,44.0
2019-03-01T12:06:15.500Z,44.8
2019-03-01T12:09:15.937Z,45.3
2019-03-01T12:12:15.761Z,46.8
2019-03-01T12:15:15.626Z,46.5
2019-03-01T12:18:15.762Z,46.4
2019-03-01T12:21:15.847Z,46.8
2019-03-01T12:24:15.793Z,47.2
2019-03-01T12:27:16.007Z,48.4
2019-03-01T12:30:15.911Z,47.5
2019-03-01T12:33:15.868Z,49.4
2019-03-01T12:36:15.893Z,49.8
2019-03-01T12:39:15.971Z,50.1
2019-03-01T12:42:15.255Z,49.6
2019-03-01T12:45:15.134Z,49.1
2019-03-01T12:48:15.513Z,48.6
2019-03-01T12:51:15.406Z,47.8
2019-03-01T12:54:15.448Z,47.7
2019-03-01T12:57:15.491Z,47.2
2019-03-01T13:00:15.516Z,46.2
2019-03-01T13:03:15.485Z,47.8
2019-03-01T13:06:15.853Z,48.9
2019-03-01T13:09:15.924Z,48.5
2019-03-01T13:12:15.780Z,49.8
2019-03-01T13:15:15.775Z,52.0
2019-03-01T13:18:16.869Z,51.8
2019-03-01T13:21:15.978Z,51.5
2019-03-01T13:24:16.462Z,52.8
2019-03-01T13:27:17.491Z,51.7
2019-03-01T13:30:15.207Z,53.5
2019-03-01T13:33:15.952Z,52.2
2019-03-01T13:36:15.630Z,52.8
2019-03-01T13:39:15.657Z,53.1
2019-03-01T13:42:15.917Z,54.7
2019-03-01T13:45:15.920Z,53.6
2019-03-01T13:48:18.991Z,52.9
2019-03-01T13:51:17.176Z,53.9
2019-03-01T13:54:15.985Z,54.7
2019-03-01T13:57:15.878Z,54.9
2019-03-01T14:00:15.890Z,54.5
2019-03-01T14:03:15.390Z,53.9
2019-03-01T14:06:16.050Z,53.6
2019-03-01T14:09:15.078Z,52.6
2019-03-01T14:12:15.549Z,52.0
2019-03-01T14:15:15.418Z,52.8
2019-03-01T14:18:15.240Z,52.9
2019-03-01T14:24:29.573Z,51.7
2019-03-01T14:27:15.344Z,52.8
2019-03-01T14:30:15.019Z,51.0
2019-03-01T14:33:15.037Z,52.2
2019-03-01T14:36:16.830Z,50.5
2019-03-01T14:39:14.996Z,51.3
2019-03-01T14:42:16.084Z,51.6
2019-03-01T14:45:15.160Z,51.2
2019-03-01T14:48:15.246Z,51.8
2019-03-01T14:51:15.175Z,50.9
2019-03-01T14:54:15.175Z,51.5
2019-03-01T14:57:17.242Z,51.4
2019-03-01T15:00:15.513Z,51.7
2019-03-01T15:03:16.411Z,51.6
2019-03-01T15:06:19.236Z,51.6
2019-03-01T15:09:16.845Z,51.8
2019-03-01T15:12:19.675Z,51.5
2019-03-01T15:15:15.870Z,52.4
2019-03-01T15:18:15.424Z,53.5
2019-03-01T15:21:15.061Z,52.3
2019-03-01T15:24:15.322Z,52.8
2019-03-01T15:28:02.512Z,52.3
2019-03-01T15:30:30.760Z,53.2
2019-03-01T15:43:45.611Z,53.6
2019-03-01T15:45:15.506Z,53.6
2019-03-01T15:48:15.512Z,53.5
2019-03-01T15:51:15.118Z,52.7
2019-03-01T15:54:15.864Z,52.9
2019-03-01T15:57:18.685Z,54.1
2019-03-01T16:00:15.739Z,54.0
2019-03-01T16:03:15.174Z,54.1
2019-03-01T16:06:20.147Z,54.6
2019-03-01T16:09:15.502Z,54.6
2019-03-01T16:12:15.855Z,55.4
2019-03-01T16:15:20.792Z,55.2
2019-03-01T16:18:15.378Z,54.7
2019-03-01T16:21:15.282Z,55.3
2019-03-01T16:24:15.151Z,55.5
2019-03-01T16:27:15.512Z,55.4
2019-03-01T16:30:17.638Z,55.7
2019-03-01T16:33:15.150Z,56.4
2019-03-01T16:36:15.642Z,55.3
2019-03-01T16:39:16.500Z,55.6
2019-03-01T16:42:17.990Z,56.9
2019-03-01T16:45:17.736Z,56.2
2019-03-01T16:48:16.936Z,56.6
2019-03-01T16:51:18.599Z,57.0
2019-03-01T16:54:16.538Z,57.3
2019-03-01T16:57:15.849Z,55.7
2019-03-01T17:00:18.165Z,56.5
2019-03-01T17:03:17.986Z,57.0
2019-03-01T17:06:15.290Z,56.1
2019-03-01T17:09:16.379Z,57.0
2019-03-01T17:12:16.655Z,57.3
2019-03-01T17:15:15.162Z,56.0
2019-03-01T17:18:15.408Z,55.5
2019-03-01T17:21:16.562Z,57.1
2019-03-01T17:24:16.339Z,56.9
2019-03-01T17:27:17.466Z,57.2
2019-03-01T17:30:15.252Z,57.7
2019-03-01T17:33:15.826Z,59.2
2019-03-01T17:36:16.920Z,58.2
2019-03-01T17:39:16.677Z,57.6
2019-03-01T17:42:17.509Z,56.6
2019-03-01T17:45:17.239Z,57.0
2019-03-01T17:48:18.344Z,58.7
2019-03-01T17:51:18.239Z,58.3
2019-03-01T17:54:19.056Z,58.5
2019-03-01T17:57:16.170Z,56.6
2019-03-01T18:00:15.662Z,58.1
2019-03-01T18:03:15.267Z,57.5
2019-03-01T18:06:16.805Z,57.9
2019-03-01T18:09:16.169Z,58.5
2019-03-01T18:12:17.494Z,57.2
2019-03-01T18:15:15.119Z,57.2
2019-03-01T18:18:15.134Z,57.1
2019-03-01T18:21:15.792Z,57.9
2019-03-01T18:24:15.949Z,59.4
2019-03-01T18:27:17.962Z,58.5
2019-03-01T18:30:16.177Z,57.2
2019-03-01T18:33:16.777Z,57.7
2019-03-01T18:36:15.345Z,58.8
2019-03-01T18:39:15.928Z,59.0
2019-03-01T18:42:15.950Z,57.8
2019-03-01T18:45:15.054Z,58.1
2019-03-01T18:48:16.033Z,58.4
2019-03-01T18:51:21.129Z,58.8
2019-03-01T18:54:15.491Z,58.4
2019-03-01T18:57:15.617Z,57.7
2019-03-01T19:00:15.959Z,58.1
2019-03-01T19:03:15.811Z,59.1
2019-03-01T19:06:16.236Z,58.7
2019-03-01T19:09:16.461Z,57.8
2019-03-01T19:12:15.228Z,58.5
2019-03-01T19:15:15.512Z,58.1
2019-03-01T19:18:16.852Z,58.2
2019-03-01T19:21:17.425Z,57.9
2019-03-01T19:24:16.105Z,57.9
2019-03-01T19:27:24.263Z,57.9
2019-03-01T19:30:18.773Z,58.0
2019-03-01T19:33:17.195Z,57.4
2019-03-01T19:36:15.927Z,57.9
2019-03-01T19:39:15.786Z,57.8
2019-03-01T19:42:16.051Z,58.1
2019-03-01T19:45:16.992Z,58.8
2019-03-01T19:48:20.047Z,59.1
2019-03-01T19:51:16.015Z,58.8
2019-03-01T19:54:16.395Z,59.5
2019-03-01T19:57:16.625Z,59.3
2019-03-01T20:00:17.277Z,57.5
2019-03-01T20:03:27.340Z,58.5
2019-03-01T20:06:17.526Z,57.4
2019-03-01T20:09:16.367Z,57.4
2019-03-01T20:12:18.272Z,57.2
2019-03-01T20:15:15.541Z,58.5
2019-03-01T20:18:16.279Z,56.7
2019-03-01T20:21:16.173Z,57.4
2019-03-01T20:24:16.855Z,57.7
2019-03-01T20:27:15.617Z,58.0
2019-03-01T20:30:18.376Z,57.1
2019-03-01T20:33:15.130Z,56.8
2019-03-01T20:36:17.663Z,57.4
2019-03-01T20:39:16.500Z,57.2
2019-03-01T20:42:17.701Z,57.5
2019-03-01T20:45:15.460Z,57.3
2019-03-01T20:48:15.249Z,57.9
2019-03-01T20:51:15.895Z,57.9
2019-03-01T20:54:17.661Z,56.1
2019-03-01T20:57:15.191Z,56.5
2019-03-01T21:00:15.408Z,56.9
2019-03-01T21:03:15.731Z,56.5
2019-03-01T21:06:15.320Z,55.7
2019-03-01T21:09:15.111Z,56.4
2019-03-01T21:12:15.859Z,56.3
2019-03-01T21:15:15.941Z,56.7
2019-03-01T21:18:15.880Z,55.4
2019-03-01T21:21:15.410Z,55.6
2019-03-01T21:24:15.263Z,56.5
2019-03-01T21:27:15.505Z,56.7
2019-03-01T21:30:15.487Z,56.2
2019-03-01T21:33:15.852Z,56.7
2019-03-01T21:36:15.458Z,56.4
2019-03-01T21:39:15.446Z,56.5
2019-03-01T21:42:21.207Z,55.5
2019-03-01T21:45:17.820Z,55.7
2019-03-01T21:48:15.322Z,56.1
2019-03-01T21:51:18.519Z,56.1
2019-03-01T21:54:16.445Z,54.8
2019-03-01T21:57:15.150Z,56.8
2019-03-01T22:00:15.868Z,55.8
2019-03-01T22:03:15.440Z,56.6
2019-03-01T22:06:15.603Z,56.4
2019-03-01T22:09:15.125Z,56.7
2019-03-01T22:12:15.485Z,56.9
2019-03-01T22:15:15.356Z,56.7
2019-03-01T22:18:15.317Z,57.0
2019-03-01T22:21:16.894Z,56.2
2019-03-01T22:24:15.617Z,56.8
2019-03-01T22:27:15.526Z,56.6
2019-03-01T22:30:15.332Z,57.0
2019-03-01T22:33:17.446Z,56.5
2019-03-01T22:36:18.145Z,56.7
2019-03-01T22:39:16.581Z,56.8
2019-03-01T22:42:15.836Z,57.6
2019-03-01T22:45:15.624Z,57.0
2019-03-01T22:48:15.464Z,57.4
2019-03-01T22:51:17.929Z,57.4
2019-03-01T22:54:17.813Z,57.2
2019-03-01T22:57:15.600Z,57.2
2019-03-01T23:00:15.504Z,58.0
2019-03-01T23:03:18.941Z,57.9
2019-03-01T23:06:15.578Z,58.5
2019-03-01T23:09:20.686Z,58.1
2019-03-01T23:12:15.561Z,57.9
2019-03-01T23:15:15.249Z,57.1
2019-03-01T23:18:15.121Z,57.5
2019-03-01T23:21:14.948Z,57.2
2019-03-01T23:24:15.928Z,57.4
2019-03-01T23:27:15.503Z,57.8
2019-03-01T23:30:17.323Z,57.6
2019-03-01T23:33:15.080Z,57.8
2019-03-01T23:36:15.121Z,57.7
2019-03-01T23:39:15.267Z,57.0
2019-03-01T23:42:17.319Z,57.4
2019-03-01T23:45:17.377Z,57.7
2019-03-01T23:48:15.247Z,58.1
2019-03-01T23:51:15.973Z,57.3
2019-03-01T23:54:15.860Z,58.0
2019-03-01T23:57:15.657Z,57.7
